sensor_id;sensor_type;location;lat;lon;timestamp;temperature;humidity
21092;DHT22;10704;42.678;23.288;2022-11-20T00:01:15;19.10;99.90
21092;DHT22;10704;42.678;23.288;2022-11-20T00:03:42;18.90;99.90
21092;DHT22;10704;42.678;23.288;2022-11-20T00:06:10;18.90;99.90
21092;DHT22;10704;42.678;23.288;2022-11-20T00:08:37;19.00;99.90
21092;DHT22;10704;42.678;23.288;2022-11-20T00:11:07;19.00;99.90
21092;DHT22;10704;42.678;23.288;2022-11-20T00:13:34;19.00;99.90
21092;DHT22;10704;42.678;23.288;2022-11-20T00:16:02;19.10;99.90
21092;DHT22;10704;42.678;23.288;2022-11-20T00:18:28;19.10;99.90
21092;DHT22;10704;42.678;23.288;2022-11-20T00:21:04;19.10;99.90
21092;DHT22;10704;42.678;23.288;2022-11-20T00:23:30;19.10;99.90
21092;DHT22;10704;42.678;23.288;2022-11-20T00:25:56;19.10;99.90
21092;DHT22;10704;42.678;23.288;2022-11-20T00:28:22;19.10;99.90
21092;DHT22;10704;42.678;23.288;2022-11-20T00:31:12;19.10;99.90
21092;DHT22;10704;42.678;23.288;2022-11-20T00:33:38;19.10;99.90
21092;DHT22;10704;42.678;23.288;2022-11-20T00:36:06;19.20;99.90
21092;DHT22;10704;42.678;23.288;2022-11-20T00:38:33;19.20;99.90
21092;DHT22;10704;42.678;23.288;2022-11-20T00:41:00;19.20;99.90
21092;DHT22;10704;42.678;23.288;2022-11-20T00:43:27;19.20;99.90
21092;DHT22;10704;42.678;23.288;2022-11-20T00:46:22;19.20;99.90
21092;DHT22;10704;42.678;23.288;2022-11-20T00:52:34;19.10;99.90
21092;DHT22;10704;42.678;23.288;2022-11-20T00:55:00;19.20;99.90
21092;DHT22;10704;42.678;23.288;2022-11-20T00:57:25;19.10;99.90
21092;DHT22;10704;42.678;23.288;2022-11-20T00:59:51;19.20;99.90
21092;DHT22;10704;42.678;23.288;2022-11-20T01:02:17;19.20;99.90
21092;DHT22;10704;42.678;23.288;2022-11-20T01:04:43;19.10;99.90
21092;DHT22;10704;42.678;23.288;2022-11-20T01:07:09;19.00;99.90
21092;DHT22;10704;42.678;23.288;2022-11-20T01:09:35;18.90;99.90
21092;DHT22;10704;42.678;23.288;2022-11-20T01:12:00;19.00;99.90
21092;DHT22;10704;42.678;23.288;2022-11-20T01:14:26;18.90;99.90
21092;DHT22;10704;42.678;23.288;2022-11-20T01:16:52;18.80;99.90
21092;DHT22;10704;42.678;23.288;2022-11-20T01:23:20;18.80;99.90
21092;DHT22;10704;42.678;23.288;2022-11-20T01:25:45;18.80;99.90
21092;DHT22;10704;42.678;23.288;2022-11-20T01:31:35;18.60;99.90
21092;DHT22;10704;42.678;23.288;2022-11-20T01:34:03;18.80;99.90
21092;DHT22;10704;42.678;23.288;2022-11-20T01:36:31;18.80;99.90
21092;DHT22;10704;42.678;23.288;2022-11-20T01:38:59;18.80;99.90
21092;DHT22;10704;42.678;23.288;2022-11-20T01:41:28;18.80;99.90
21092;DHT22;10704;42.678;23.288;2022-11-20T01:44:16;18.90;99.90
21092;DHT22;10704;42.678;23.288;2022-11-20T01:46:57;19.00;98.50
21092;DHT22;10704;42.678;23.288;2022-11-20T01:51:57;19.00;99.90
21092;DHT22;10704;42.678;23.288;2022-11-20T01:54:28;18.90;99.90
21092;DHT22;10704;42.678;23.288;2022-11-20T01:56:57;18.70;99.90
21092;DHT22;10704;42.678;23.288;2022-11-20T01:59:25;18.70;99.90
21092;DHT22;10704;42.678;23.288;2022-11-20T02:05:46;18.40;99.90
21092;DHT22;10704;42.678;23.288;2022-11-20T02:08:15;18.40;99.90
21092;DHT22;10704;42.678;23.288;2022-11-20T02:10:41;18.60;99.90
21092;DHT22;10704;42.678;23.288;2022-11-20T02:13:08;18.80;99.90
21092;DHT22;10704;42.678;23.288;2022-11-20T02:15:53;18.70;99.90
21092;DHT22;10704;42.678;23.288;2022-11-20T02:18:20;18.70;99.90
21092;DHT22;10704;42.678;23.288;2022-11-20T02:24:34;18.40;99.90
21092;DHT22;10704;42.678;23.288;2022-11-20T02:27:09;18.40;99.90
21092;DHT22;10704;42.678;23.288;2022-11-20T02:33:23;18.60;99.90
21092;DHT22;10704;42.678;23.288;2022-11-20T02:35:49;18.50;99.90
21092;DHT22;10704;42.678;23.288;2022-11-20T02:38:15;18.50;99.90
21092;DHT22;10704;42.678;23.288;2022-11-20T02:40:41;18.50;99.90
21092;DHT22;10704;42.678;23.288;2022-11-20T02:43:08;18.40;99.90
21092;DHT22;10704;42.678;23.288;2022-11-20T02:45:34;18.50;99.90
21092;DHT22;10704;42.678;23.288;2022-11-20T02:48:00;18.60;99.90
21092;DHT22;10704;42.678;23.288;2022-11-20T02:50:45;18.60;99.90
21092;DHT22;10704;42.678;23.288;2022-11-20T02:53:11;18.40;99.90
21092;DHT22;10704;42.678;23.288;2022-11-20T02:55:37;18.40;99.90
21092;DHT22;10704;42.678;23.288;2022-11-20T02:58:03;18.30;99.90
21092;DHT22;10704;42.678;23.288;2022-11-20T03:00:29;18.40;99.90
21092;DHT22;10704;42.678;23.288;2022-11-20T03:02:55;18.30;99.90
21092;DHT22;10704;42.678;23.288;2022-11-20T03:05:54;18.20;99.90
21092;DHT22;10704;42.678;23.288;2022-11-20T03:08:20;18.20;99.90
21092;DHT22;10704;42.678;23.288;2022-11-20T03:14:34;18.20;99.90
21092;DHT22;10704;42.678;23.288;2022-11-20T03:17:00;18.10;99.90
21092;DHT22;10704;42.678;23.288;2022-11-20T03:19:26;18.00;99.90
21092;DHT22;10704;42.678;23.288;2022-11-20T03:21:52;18.00;99.90
21092;DHT22;10704;42.678;23.288;2022-11-20T03:24:18;18.00;99.90
21092;DHT22;10704;42.678;23.288;2022-11-20T03:26:44;18.00;99.90
21092;DHT22;10704;42.678;23.288;2022-11-20T03:29:10;18.00;99.90
21092;DHT22;10704;42.678;23.288;2022-11-20T03:31:38;18.00;99.90
21092;DHT22;10704;42.678;23.288;2022-11-20T03:34:07;18.00;99.90
21092;DHT22;10704;42.678;23.288;2022-11-20T03:36:33;18.10;99.90
21092;DHT22;10704;42.678;23.288;2022-11-20T03:39:00;18.00;99.90
21092;DHT22;10704;42.678;23.288;2022-11-20T03:41:30;18.00;99.90
21092;DHT22;10704;42.678;23.288;2022-11-20T03:43:59;18.00;99.90
21092;DHT22;10704;42.678;23.288;2022-11-20T03:46:26;18.00;99.90
21092;DHT22;10704;42.678;23.288;2022-11-20T03:48:52;18.00;99.90
21092;DHT22;10704;42.678;23.288;2022-11-20T03:51:19;18.00;99.90
21092;DHT22;10704;42.678;23.288;2022-11-20T03:53:47;17.90;99.90
21092;DHT22;10704;42.678;23.288;2022-11-20T04:00:16;18.00;99.90
21092;DHT22;10704;42.678;23.288;2022-11-20T04:02:42;17.90;99.90
21092;DHT22;10704;42.678;23.288;2022-11-20T04:05:08;17.80;99.90
21092;DHT22;10704;42.678;23.288;2022-11-20T04:15:22;17.90;99.90
21092;DHT22;10704;42.678;23.288;2022-11-20T04:17:48;18.00;99.90
21092;DHT22;10704;42.678;23.288;2022-11-20T04:20:14;18.00;99.90
21092;DHT22;10704;42.678;23.288;2022-11-20T04:22:40;17.80;99.90
21092;DHT22;10704;42.678;23.288;2022-11-20T04:25:06;17.70;99.90
21092;DHT22;10704;42.678;23.288;2022-11-20T04:27:32;17.80;99.90
21092;DHT22;10704;42.678;23.288;2022-11-20T04:29:58;17.70;99.90
21092;DHT22;10704;42.678;23.288;2022-11-20T04:32:42;17.80;99.90
21092;DHT22;10704;42.678;23.288;2022-11-20T04:35:08;17.70;99.90
21092;DHT22;10704;42.678;23.288;2022-11-20T04:40:44;17.60;99.90
21092;DHT22;10704;42.678;23.288;2022-11-20T04:43:10;17.60;99.90
21092;DHT22;10704;42.678;23.288;2022-11-20T04:53:10;17.60;99.90
21092;DHT22;10704;42.678;23.288;2022-11-20T04:55:36;17.60;99.90
21092;DHT22;10704;42.678;23.288;2022-11-20T05:01:49;17.70;99.90
21092;DHT22;10704;42.678;23.288;2022-11-20T05:04:14;17.70;99.90
21092;DHT22;10704;42.678;23.288;2022-11-20T05:06:40;17.70;99.90
21092;DHT22;10704;42.678;23.288;2022-11-20T05:12:13;17.60;99.90
21092;DHT22;10704;42.678;23.288;2022-11-20T05:14:38;17.60;99.90
21092;DHT22;10704;42.678;23.288;2022-11-20T05:17:04;17.50;99.90
21092;DHT22;10704;42.678;23.288;2022-11-20T05:19:30;17.50;99.90
21092;DHT22;10704;42.678;23.288;2022-11-20T05:21:56;17.50;99.90
21092;DHT22;10704;42.678;23.288;2022-11-20T05:24:22;17.50;99.90
21092;DHT22;10704;42.678;23.288;2022-11-20T05:26:48;17.50;99.90
21092;DHT22;10704;42.678;23.288;2022-11-20T05:29:14;17.50;99.90
21092;DHT22;10704;42.678;23.288;2022-11-20T05:31:41;17.60;99.90
21092;DHT22;10704;42.678;23.288;2022-11-20T05:34:07;17.60;99.90
21092;DHT22;10704;42.678;23.288;2022-11-20T05:36:33;17.60;99.90
21092;DHT22;10704;42.678;23.288;2022-11-20T05:38:59;17.50;99.90
21092;DHT22;10704;42.678;23.288;2022-11-20T05:41:25;17.50;99.90
21092;DHT22;10704;42.678;23.288;2022-11-20T05:47:23;17.40;99.90
21092;DHT22;10704;42.678;23.288;2022-11-20T05:49:49;17.50;99.90
21092;DHT22;10704;42.678;23.288;2022-11-20T05:52:15;17.60;99.90
21092;DHT22;10704;42.678;23.288;2022-11-20T05:58:28;17.70;99.90
21092;DHT22;10704;42.678;23.288;2022-11-20T06:00:54;17.50;99.90
21092;DHT22;10704;42.678;23.288;2022-11-20T06:03:28;17.50;99.90
21092;DHT22;10704;42.678;23.288;2022-11-20T06:05:54;17.60;99.90
21092;DHT22;10704;42.678;23.288;2022-11-20T06:08:20;17.60;99.90
21092;DHT22;10704;42.678;23.288;2022-11-20T06:10:45;17.60;99.90
21092;DHT22;10704;42.678;23.288;2022-11-20T06:13:11;17.20;99.90
21092;DHT22;10704;42.678;23.288;2022-11-20T06:15:37;17.10;99.90
21092;DHT22;10704;42.678;23.288;2022-11-20T06:18:03;17.10;99.90
21092;DHT22;10704;42.678;23.288;2022-11-20T06:20:29;17.10;99.90
21092;DHT22;10704;42.678;23.288;2022-11-20T06:22:59;17.00;99.90
21092;DHT22;10704;42.678;23.288;2022-11-20T06:25:25;16.90;99.90
21092;DHT22;10704;42.678;23.288;2022-11-20T06:31:00;17.00;99.90
21092;DHT22;10704;42.678;23.288;2022-11-20T06:33:26;16.90;99.90
21092;DHT22;10704;42.678;23.288;2022-11-20T06:35:52;16.90;99.90
21092;DHT22;10704;42.678;23.288;2022-11-20T06:38:18;17.00;99.90
21092;DHT22;10704;42.678;23.288;2022-11-20T06:40:44;17.30;99.90
21092;DHT22;10704;42.678;23.288;2022-11-20T06:43:10;17.50;99.90
21092;DHT22;10704;42.678;23.288;2022-11-20T06:45:51;17.60;99.90
21092;DHT22;10704;42.678;23.288;2022-11-20T06:48:17;17.60;99.90
21092;DHT22;10704;42.678;23.288;2022-11-20T06:50:51;17.60;99.90
21092;DHT22;10704;42.678;23.288;2022-11-20T06:53:18;17.70;99.90
21092;DHT22;10704;42.678;23.288;2022-11-20T06:55:44;17.90;99.90
21092;DHT22;10704;42.678;23.288;2022-11-20T06:58:12;18.20;99.90
21092;DHT22;10704;42.678;23.288;2022-11-20T07:00:38;18.40;99.90
21092;DHT22;10704;42.678;23.288;2022-11-20T07:03:05;18.60;99.90
21092;DHT22;10704;42.678;23.288;2022-11-20T07:05:31;19.00;99.90
21092;DHT22;10704;42.678;23.288;2022-11-20T07:07:57;19.10;99.90
21092;DHT22;10704;42.678;23.288;2022-11-20T07:10:23;19.10;99.90
21092;DHT22;10704;42.678;23.288;2022-11-20T07:16:37;18.90;99.90
21092;DHT22;10704;42.678;23.288;2022-11-20T07:23:03;18.70;99.90
21092;DHT22;10704;42.678;23.288;2022-11-20T07:25:28;18.40;99.90
21092;DHT22;10704;42.678;23.288;2022-11-20T07:28:00;18.30;99.90
21092;DHT22;10704;42.678;23.288;2022-11-20T07:30:29;18.30;99.90
21092;DHT22;10704;42.678;23.288;2022-11-20T07:32:56;18.30;99.90
21092;DHT22;10704;42.678;23.288;2022-11-20T07:35:23;18.20;99.90
21092;DHT22;10704;42.678;23.288;2022-11-20T07:37:49;18.20;99.90
21092;DHT22;10704;42.678;23.288;2022-11-20T07:40:16;18.10;99.90
21092;DHT22;10704;42.678;23.288;2022-11-20T07:42:52;18.00;99.90
21092;DHT22;10704;42.678;23.288;2022-11-20T07:45:19;17.90;99.90
21092;DHT22;10704;42.678;23.288;2022-11-20T07:47:45;17.90;99.90
21092;DHT22;10704;42.678;23.288;2022-11-20T07:50:12;18.00;99.90
21092;DHT22;10704;42.678;23.288;2022-11-20T07:52:38;18.10;99.90
21092;DHT22;10704;42.678;23.288;2022-11-20T07:55:05;18.20;99.90
21092;DHT22;10704;42.678;23.288;2022-11-20T07:57:30;18.30;99.90
21092;DHT22;10704;42.678;23.288;2022-11-20T07:59:56;18.20;99.90
21092;DHT22;10704;42.678;23.288;2022-11-20T08:02:22;18.10;99.90
21092;DHT22;10704;42.678;23.288;2022-11-20T08:04:48;18.10;99.90
21092;DHT22;10704;42.678;23.288;2022-11-20T08:07:14;18.10;99.90
21092;DHT22;10704;42.678;23.288;2022-11-20T08:09:40;18.20;99.90
21092;DHT22;10704;42.678;23.288;2022-11-20T08:12:07;18.10;99.90
21092;DHT22;10704;42.678;23.288;2022-11-20T08:14:52;18.10;99.90
21092;DHT22;10704;42.678;23.288;2022-11-20T08:17:18;18.40;99.90
21092;DHT22;10704;42.678;23.288;2022-11-20T08:19:44;18.60;99.90
21092;DHT22;10704;42.678;23.288;2022-11-20T08:22:09;18.60;99.90
21092;DHT22;10704;42.678;23.288;2022-11-20T08:24:35;18.80;99.90
21092;DHT22;10704;42.678;23.288;2022-11-20T08:27:01;18.90;99.90
21092;DHT22;10704;42.678;23.288;2022-11-20T08:29:27;18.90;99.90
21092;DHT22;10704;42.678;23.288;2022-11-20T08:31:53;19.00;99.90
21092;DHT22;10704;42.678;23.288;2022-11-20T08:34:19;19.50;99.90
21092;DHT22;10704;42.678;23.288;2022-11-20T08:36:45;19.60;99.90
21092;DHT22;10704;42.678;23.288;2022-11-20T08:39:12;19.30;99.90
21092;DHT22;10704;42.678;23.288;2022-11-20T08:41:38;18.90;99.90
21092;DHT22;10704;42.678;23.288;2022-11-20T08:44:06;18.80;99.90
21092;DHT22;10704;42.678;23.288;2022-11-20T08:46:35;18.70;99.90
21092;DHT22;10704;42.678;23.288;2022-11-20T08:49:06;18.40;99.90
21092;DHT22;10704;42.678;23.288;2022-11-20T08:51:33;17.70;99.90
21092;DHT22;10704;42.678;23.288;2022-11-20T08:53:59;16.90;99.90
21092;DHT22;10704;42.678;23.288;2022-11-20T08:56:25;16.30;99.90
21092;DHT22;10704;42.678;23.288;2022-11-20T08:58:51;16.00;99.90
21092;DHT22;10704;42.678;23.288;2022-11-20T09:01:18;16.00;99.90
21092;DHT22;10704;42.678;23.288;2022-11-20T09:03:46;16.00;99.90
21092;DHT22;10704;42.678;23.288;2022-11-20T09:06:12;16.10;99.90
21092;DHT22;10704;42.678;23.288;2022-11-20T09:08:38;16.20;99.90
21092;DHT22;10704;42.678;23.288;2022-11-20T09:11:05;16.20;99.90
21092;DHT22;10704;42.678;23.288;2022-11-20T09:13:32;16.30;99.90
21092;DHT22;10704;42.678;23.288;2022-11-20T09:16:04;16.20;99.90
21092;DHT22;10704;42.678;23.288;2022-11-20T09:18:31;16.10;99.90
21092;DHT22;10704;42.678;23.288;2022-11-20T09:21:04;15.90;99.90
21092;DHT22;10704;42.678;23.288;2022-11-20T09:23:35;15.70;99.90
21092;DHT22;10704;42.678;23.288;2022-11-20T09:26:05;15.30;99.90
21092;DHT22;10704;42.678;23.288;2022-11-20T09:28:32;14.90;99.90
21092;DHT22;10704;42.678;23.288;2022-11-20T09:30:59;14.70;99.90
21092;DHT22;10704;42.678;23.288;2022-11-20T09:33:25;14.60;99.90
21092;DHT22;10704;42.678;23.288;2022-11-20T09:35:51;14.50;99.90
21092;DHT22;10704;42.678;23.288;2022-11-20T09:38:17;14.50;99.90
21092;DHT22;10704;42.678;23.288;2022-11-20T09:41:25;14.60;99.90
21092;DHT22;10704;42.678;23.288;2022-11-20T09:44:40;14.90;99.90
21092;DHT22;10704;42.678;23.288;2022-11-20T09:50:57;15.70;99.90
21092;DHT22;10704;42.678;23.288;2022-11-20T09:55:45;16.50;99.90
21092;DHT22;10704;42.678;23.288;2022-11-20T10:03:56;18.80;99.90
21092;DHT22;10704;42.678;23.288;2022-11-20T10:25:19;22.40;99.90
21092;DHT22;10704;42.678;23.288;2022-11-20T10:30:21;20.70;99.90
21092;DHT22;10704;42.678;23.288;2022-11-20T10:32:54;20.50;99.90
21092;DHT22;10704;42.678;23.288;2022-11-20T10:38:02;20.20;99.90
21092;DHT22;10704;42.678;23.288;2022-11-20T10:40:48;19.70;99.90
21092;DHT22;10704;42.678;23.288;2022-11-20T10:43:24;19.10;99.90
21092;DHT22;10704;42.678;23.288;2022-11-20T10:46:07;18.60;99.90
21092;DHT22;10704;42.678;23.288;2022-11-20T10:48:34;18.20;99.90
21092;DHT22;10704;42.678;23.288;2022-11-20T10:53:55;17.50;99.90
21092;DHT22;10704;42.678;23.288;2022-11-20T11:01:44;16.40;99.90
21092;DHT22;10704;42.678;23.288;2022-11-20T11:04:29;15.80;99.90
21092;DHT22;10704;42.678;23.288;2022-11-20T11:07:10;15.20;99.90
21092;DHT22;10704;42.678;23.288;2022-11-20T11:09:49;14.50;99.90
21092;DHT22;10704;42.678;23.288;2022-11-20T11:12:15;12.80;99.90
21092;DHT22;10704;42.678;23.288;2022-11-20T11:14:47;13.00;99.90
21092;DHT22;10704;42.678;23.288;2022-11-20T11:17:28;13.00;99.90
21092;DHT22;10704;42.678;23.288;2022-11-20T11:20:03;13.00;99.90
21092;DHT22;10704;42.678;23.288;2022-11-20T11:22:32;12.70;99.90
21092;DHT22;10704;42.678;23.288;2022-11-20T11:24:58;12.60;99.90
21092;DHT22;10704;42.678;23.288;2022-11-20T11:27:25;12.60;99.90
21092;DHT22;10704;42.678;23.288;2022-11-20T11:30:14;12.50;99.90
21092;DHT22;10704;42.678;23.288;2022-11-20T11:32:40;12.70;99.90
21092;DHT22;10704;42.678;23.288;2022-11-20T11:35:18;12.60;99.90
21092;DHT22;10704;42.678;23.288;2022-11-20T11:37:45;12.80;99.90
21092;DHT22;10704;42.678;23.288;2022-11-20T11:40:13;12.70;99.90
21092;DHT22;10704;42.678;23.288;2022-11-20T11:42:46;12.90;99.90
21092;DHT22;10704;42.678;23.288;2022-11-20T11:45:16;12.90;99.90
21092;DHT22;10704;42.678;23.288;2022-11-20T11:47:44;12.90;99.90
21092;DHT22;10704;42.678;23.288;2022-11-20T11:50:18;12.90;99.90
21092;DHT22;10704;42.678;23.288;2022-11-20T11:55:47;13.20;99.90
21092;DHT22;10704;42.678;23.288;2022-11-20T12:06:36;13.40;99.90
21092;DHT22;10704;42.678;23.288;2022-11-20T12:09:09;13.80;99.90
21092;DHT22;10704;42.678;23.288;2022-11-20T12:11:58;13.70;99.90
21092;DHT22;10704;42.678;23.288;2022-11-20T12:14:37;13.70;99.90
21092;DHT22;10704;42.678;23.288;2022-11-20T12:17:05;13.60;99.90
21092;DHT22;10704;42.678;23.288;2022-11-20T12:19:34;13.70;99.90
21092;DHT22;10704;42.678;23.288;2022-11-20T12:28:21;13.50;99.90
21092;DHT22;10704;42.678;23.288;2022-11-20T12:39:36;13.00;99.90
21092;DHT22;10704;42.678;23.288;2022-11-20T12:47:53;13.10;99.90
21092;DHT22;10704;42.678;23.288;2022-11-20T13:04:39;13.50;99.90
21092;DHT22;10704;42.678;23.288;2022-11-20T13:07:12;13.40;99.90
21092;DHT22;10704;42.678;23.288;2022-11-20T13:09:46;13.10;99.90
21092;DHT22;10704;42.678;23.288;2022-11-20T13:17:42;12.80;99.90
21092;DHT22;10704;42.678;23.288;2022-11-20T13:27:05;12.80;99.90
21092;DHT22;10704;42.678;23.288;2022-11-20T13:29:32;12.80;99.90
21092;DHT22;10704;42.678;23.288;2022-11-20T13:32:12;12.80;99.90
21092;DHT22;10704;42.678;23.288;2022-11-20T13:34:39;12.80;99.90
21092;DHT22;10704;42.678;23.288;2022-11-20T13:37:35;12.80;99.90
21092;DHT22;10704;42.678;23.288;2022-11-20T13:42:46;12.90;99.90
21092;DHT22;10704;42.678;23.288;2022-11-20T13:45:31;13.00;99.90
21092;DHT22;10704;42.678;23.288;2022-11-20T13:48:01;13.10;99.90
21092;DHT22;10704;42.678;23.288;2022-11-20T14:01:50;13.10;99.90
21092;DHT22;10704;42.678;23.288;2022-11-20T14:04:25;13.10;99.90
21092;DHT22;10704;42.678;23.288;2022-11-20T14:06:52;13.00;99.90
21092;DHT22;10704;42.678;23.288;2022-11-20T14:11:52;13.10;99.90
21092;DHT22;10704;42.678;23.288;2022-11-20T14:14:21;13.20;99.90
21092;DHT22;10704;42.678;23.288;2022-11-20T14:16:48;13.10;99.90
21092;DHT22;10704;42.678;23.288;2022-11-20T14:19:27;13.10;99.90
21092;DHT22;10704;42.678;23.288;2022-11-20T14:24:42;13.10;99.90
21092;DHT22;10704;42.678;23.288;2022-11-20T14:27:21;13.10;99.90
21092;DHT22;10704;42.678;23.288;2022-11-20T14:29:49;13.10;99.90
21092;DHT22;10704;42.678;23.288;2022-11-20T14:32:17;13.00;99.90
21092;DHT22;10704;42.678;23.288;2022-11-20T14:34:46;12.90;99.90
21092;DHT22;10704;42.678;23.288;2022-11-20T14:37:19;12.80;99.90
21092;DHT22;10704;42.678;23.288;2022-11-20T14:39:54;12.80;99.90
21092;DHT22;10704;42.678;23.288;2022-11-20T14:42:23;12.80;99.90
21092;DHT22;10704;42.678;23.288;2022-11-20T14:44:50;12.80;99.90
21092;DHT22;10704;42.678;23.288;2022-11-20T14:47:25;12.70;99.90
21092;DHT22;10704;42.678;23.288;2022-11-20T14:49:53;12.70;99.90
21092;DHT22;10704;42.678;23.288;2022-11-20T14:52:24;12.70;99.90
21092;DHT22;10704;42.678;23.288;2022-11-20T14:57:35;12.60;99.90
21092;DHT22;10704;42.678;23.288;2022-11-20T15:00:19;12.60;99.90
21092;DHT22;10704;42.678;23.288;2022-11-20T15:02:48;12.60;99.90
21092;DHT22;10704;42.678;23.288;2022-11-20T15:05:15;12.60;99.90
21092;DHT22;10704;42.678;23.288;2022-11-20T15:07:47;12.50;99.90
21092;DHT22;10704;42.678;23.288;2022-11-20T15:10:27;12.50;99.90
21092;DHT22;10704;42.678;23.288;2022-11-20T15:15:36;12.40;99.90
21092;DHT22;10704;42.678;23.288;2022-11-20T15:18:05;12.40;99.90
21092;DHT22;10704;42.678;23.288;2022-11-20T15:20:36;12.40;99.90
21092;DHT22;10704;42.678;23.288;2022-11-20T15:23:07;12.40;99.90
21092;DHT22;10704;42.678;23.288;2022-11-20T15:29:23;12.40;99.90
21092;DHT22;10704;42.678;23.288;2022-11-20T15:31:49;12.40;99.90
21092;DHT22;10704;42.678;23.288;2022-11-20T15:34:16;12.30;99.90
21092;DHT22;10704;42.678;23.288;2022-11-20T15:36:43;12.30;99.90
21092;DHT22;10704;42.678;23.288;2022-11-20T15:39:09;12.20;99.90
21092;DHT22;10704;42.678;23.288;2022-11-20T15:41:37;12.20;99.90
21092;DHT22;10704;42.678;23.288;2022-11-20T15:44:04;12.20;99.90
21092;DHT22;10704;42.678;23.288;2022-11-20T15:46:37;11.90;99.90
21092;DHT22;10704;42.678;23.288;2022-11-20T15:49:04;11.50;99.90
21092;DHT22;10704;42.678;23.288;2022-11-20T15:51:33;11.30;99.90
21092;DHT22;10704;42.678;23.288;2022-11-20T15:54:00;11.30;99.90
21092;DHT22;10704;42.678;23.288;2022-11-20T15:56:26;11.30;99.90
21092;DHT22;10704;42.678;23.288;2022-11-20T15:58:52;11.20;99.90
21092;DHT22;10704;42.678;23.288;2022-11-20T16:01:21;11.10;99.90
21092;DHT22;10704;42.678;23.288;2022-11-20T16:03:47;11.10;99.90
21092;DHT22;10704;42.678;23.288;2022-11-20T16:06:13;11.10;99.90
21092;DHT22;10704;42.678;23.288;2022-11-20T16:08:41;11.10;99.90
21092;DHT22;10704;42.678;23.288;2022-11-20T16:11:12;11.10;99.90
21092;DHT22;10704;42.678;23.288;2022-11-20T16:13:38;11.00;99.90
21092;DHT22;10704;42.678;23.288;2022-11-20T16:16:26;10.90;99.90
21092;DHT22;10704;42.678;23.288;2022-11-20T16:18:54;10.80;99.90
21092;DHT22;10704;42.678;23.288;2022-11-20T16:21:20;10.90;99.90
21092;DHT22;10704;42.678;23.288;2022-11-20T16:23:46;10.80;99.90
21092;DHT22;10704;42.678;23.288;2022-11-20T16:26:16;10.80;99.90
21092;DHT22;10704;42.678;23.288;2022-11-20T16:28:42;10.80;99.90
21092;DHT22;10704;42.678;23.288;2022-11-20T16:31:16;10.80;99.90
21092;DHT22;10704;42.678;23.288;2022-11-20T16:33:48;10.90;99.90
21092;DHT22;10704;42.678;23.288;2022-11-20T16:36:15;10.90;99.90
21092;DHT22;10704;42.678;23.288;2022-11-20T16:38:41;10.90;99.90
21092;DHT22;10704;42.678;23.288;2022-11-20T16:41:08;10.90;99.90
21092;DHT22;10704;42.678;23.288;2022-11-20T16:43:48;10.90;99.90
21092;DHT22;10704;42.678;23.288;2022-11-20T16:46:17;10.90;99.90
21092;DHT22;10704;42.678;23.288;2022-11-20T16:48:43;10.90;99.90
21092;DHT22;10704;42.678;23.288;2022-11-20T16:51:10;10.70;99.90
21092;DHT22;10704;42.678;23.288;2022-11-20T16:53:36;10.90;99.90
21092;DHT22;10704;42.678;23.288;2022-11-20T16:56:19;10.90;99.90
21092;DHT22;10704;42.678;23.288;2022-11-20T16:58:47;10.90;99.90
21092;DHT22;10704;42.678;23.288;2022-11-20T17:05:00;10.80;99.90
21092;DHT22;10704;42.678;23.288;2022-11-20T17:07:26;11.10;99.90
21092;DHT22;10704;42.678;23.288;2022-11-20T17:09:52;11.10;99.90
21092;DHT22;10704;42.678;23.288;2022-11-20T17:12:18;11.20;99.90
21092;DHT22;10704;42.678;23.288;2022-11-20T17:14:44;11.20;99.90
21092;DHT22;10704;42.678;23.288;2022-11-20T17:17:10;11.00;99.90
21092;DHT22;10704;42.678;23.288;2022-11-20T17:19:36;10.90;99.90
21092;DHT22;10704;42.678;23.288;2022-11-20T17:22:02;10.90;99.90
21092;DHT22;10704;42.678;23.288;2022-11-20T17:24:28;11.00;99.90
21092;DHT22;10704;42.678;23.288;2022-11-20T17:26:54;10.90;99.90
21092;DHT22;10704;42.678;23.288;2022-11-20T17:29:20;10.90;99.90
21092;DHT22;10704;42.678;23.288;2022-11-20T17:31:49;11.00;99.90
21092;DHT22;10704;42.678;23.288;2022-11-20T17:34:16;11.00;99.90
21092;DHT22;10704;42.678;23.288;2022-11-20T17:36:42;11.00;99.90
21092;DHT22;10704;42.678;23.288;2022-11-20T17:39:15;11.00;99.90
21092;DHT22;10704;42.678;23.288;2022-11-20T17:41:42;10.90;99.90
21092;DHT22;10704;42.678;23.288;2022-11-20T17:44:09;11.00;99.90
21092;DHT22;10704;42.678;23.288;2022-11-20T17:46:35;10.90;99.90
21092;DHT22;10704;42.678;23.288;2022-11-20T17:49:01;11.10;99.90
21092;DHT22;10704;42.678;23.288;2022-11-20T17:51:30;10.90;99.90
21092;DHT22;10704;42.678;23.288;2022-11-20T17:53:59;10.90;99.90
21092;DHT22;10704;42.678;23.288;2022-11-20T17:56:29;11.00;99.90
21092;DHT22;10704;42.678;23.288;2022-11-20T17:59:14;10.90;99.90
21092;DHT22;10704;42.678;23.288;2022-11-20T18:01:40;10.90;99.90
21092;DHT22;10704;42.678;23.288;2022-11-20T18:04:07;10.90;99.90
21092;DHT22;10704;42.678;23.288;2022-11-20T18:06:33;10.90;99.90
21092;DHT22;10704;42.678;23.288;2022-11-20T18:09:01;10.90;99.90
21092;DHT22;10704;42.678;23.288;2022-11-20T18:11:30;10.80;99.90
21092;DHT22;10704;42.678;23.288;2022-11-20T18:13:59;10.90;99.90
21092;DHT22;10704;42.678;23.288;2022-11-20T18:16:46;10.90;99.90
21092;DHT22;10704;42.678;23.288;2022-11-20T18:19:15;10.90;99.90
21092;DHT22;10704;42.678;23.288;2022-11-20T18:21:41;10.90;99.90
21092;DHT22;10704;42.678;23.288;2022-11-20T18:24:07;10.80;99.90
21092;DHT22;10704;42.678;23.288;2022-11-20T18:26:34;10.80;99.90
21092;DHT22;10704;42.678;23.288;2022-11-20T18:29:00;10.80;99.90
21092;DHT22;10704;42.678;23.288;2022-11-20T18:31:27;10.80;99.90
21092;DHT22;10704;42.678;23.288;2022-11-20T18:33:54;10.80;99.90
21092;DHT22;10704;42.678;23.288;2022-11-20T18:36:26;10.90;99.90
21092;DHT22;10704;42.678;23.288;2022-11-20T18:38:54;10.90;99.90
21092;DHT22;10704;42.678;23.288;2022-11-20T18:41:25;10.90;99.90
21092;DHT22;10704;42.678;23.288;2022-11-20T18:44:16;10.90;99.90
21092;DHT22;10704;42.678;23.288;2022-11-20T18:47:01;10.90;99.90
21092;DHT22;10704;42.678;23.288;2022-11-20T18:49:27;10.90;99.90
21092;DHT22;10704;42.678;23.288;2022-11-20T18:51:53;10.90;99.90
21092;DHT22;10704;42.678;23.288;2022-11-20T18:54:19;10.90;99.90
21092;DHT22;10704;42.678;23.288;2022-11-20T18:56:45;10.90;99.90
21092;DHT22;10704;42.678;23.288;2022-11-20T18:59:12;11.00;99.90